Terminal Aerodrome Forecast
Issued by NWS

Home | Current Version | Previous Version | Text Only | Print | Product List | Glossary On
Versions: 1 2 3 4 5 6 7 8 9 10 11 12 13 14 15 16 17 18 19 20 21 22 23 24 25 26 27 28 29 30 31 32 33 34 35 36 37 38 39 40 41 42 43 44
653
FTUS44 KTSA 171731
TAFBVO
TAF
KBVO 171731Z 1718/1818 16012KT P6SM VCSH BKN008 OVC012
      TEMPO 1718/1720 3SM -RA BKN007
     FM172000 17012KT 4SM -RA BR OVC007
      TEMPO 1720/1724 3SM -RA BKN004
     FM180100 22012G19KT P6SM BKN007
     FM180800 30013KT P6SM SCT250=

USA.gov is the U.S. government's official web portal to all federal, state and local government web resources and services.